sensor_id;sensor_type;location;lat;lon;timestamp;temperature;humidity
15789;DHT22;59075;50.670;6.474;2022-08-01T05:01:13;24.00;99.90
15789;DHT22;59075;50.670;6.474;2022-08-01T05:03:41;24.00;99.90
15789;DHT22;59075;50.670;6.474;2022-08-01T05:06:07;23.90;99.90
15789;DHT22;59075;50.670;6.474;2022-08-01T05:08:34;23.80;99.90
15789;DHT22;59075;50.670;6.474;2022-08-01T05:11:02;23.80;99.90
15789;DHT22;59075;50.670;6.474;2022-08-01T05:13:29;23.80;99.90
15789;DHT22;59075;50.670;6.474;2022-08-01T05:20:52;23.70;99.90
15789;DHT22;59075;50.670;6.474;2022-08-01T05:23:18;23.60;99.90
15789;DHT22;59075;50.670;6.474;2022-08-01T05:25:45;23.50;99.90
15789;DHT22;59075;50.670;6.474;2022-08-01T05:28:12;23.50;99.90
15789;DHT22;59075;50.670;6.474;2022-08-01T05:30:39;23.60;99.90
15789;DHT22;59075;50.670;6.474;2022-08-01T05:33:06;23.60;99.90
15789;DHT22;59075;50.670;6.474;2022-08-01T05:35:34;23.70;99.90
15789;DHT22;59075;50.670;6.474;2022-08-01T05:38:00;23.70;99.90
15789;DHT22;59075;50.670;6.474;2022-08-01T05:42:54;23.90;99.90
15789;DHT22;59075;50.670;6.474;2022-08-01T05:45:21;23.90;99.90
15789;DHT22;59075;50.670;6.474;2022-08-01T05:47:47;23.90;99.90
15789;DHT22;59075;50.670;6.474;2022-08-01T05:50:14;24.00;99.90
15789;DHT22;59075;50.670;6.474;2022-08-01T05:52:42;24.10;99.90
15789;DHT22;59075;50.670;6.474;2022-08-01T05:55:09;24.10;99.90
15789;DHT22;59075;50.670;6.474;2022-08-01T06:00:04;24.20;99.90
15789;DHT22;59075;50.670;6.474;2022-08-01T06:02:31;24.20;99.90
15789;DHT22;59075;50.670;6.474;2022-08-01T06:04:57;24.10;99.90
15789;DHT22;59075;50.670;6.474;2022-08-01T06:07:24;24.10;99.90
15789;DHT22;59075;50.670;6.474;2022-08-01T06:09:52;24.10;99.90
15789;DHT22;59075;50.670;6.474;2022-08-01T06:12:19;24.10;99.90
15789;DHT22;59075;50.670;6.474;2022-08-01T06:14:45;24.10;99.90
15789;DHT22;59075;50.670;6.474;2022-08-01T06:17:12;24.10;99.90
15789;DHT22;59075;50.670;6.474;2022-08-01T06:19:39;24.20;99.90
15789;DHT22;59075;50.670;6.474;2022-08-01T06:22:05;24.20;99.90
15789;DHT22;59075;50.670;6.474;2022-08-01T06:27:02;24.30;99.90
15789;DHT22;59075;50.670;6.474;2022-08-01T06:29:33;24.30;99.90
15789;DHT22;59075;50.670;6.474;2022-08-01T06:32:00;24.30;99.90
15789;DHT22;59075;50.670;6.474;2022-08-01T06:36:54;24.20;99.90
15789;DHT22;59075;50.670;6.474;2022-08-01T06:41:47;24.10;99.90
15789;DHT22;59075;50.670;6.474;2022-08-01T06:44:15;24.10;99.90
15789;DHT22;59075;50.670;6.474;2022-08-01T06:46:42;24.10;99.90
15789;DHT22;59075;50.670;6.474;2022-08-01T06:54:03;24.20;99.90
15789;DHT22;59075;50.670;6.474;2022-08-01T06:56:29;24.20;99.90
15789;DHT22;59075;50.670;6.474;2022-08-01T06:58:56;24.20;99.90
15789;DHT22;59075;50.670;6.474;2022-08-01T07:01:27;24.10;99.90
15789;DHT22;59075;50.670;6.474;2022-08-01T07:03:54;24.10;99.90
15789;DHT22;59075;50.670;6.474;2022-08-01T07:06:22;24.10;99.90
15789;DHT22;59075;50.670;6.474;2022-08-01T07:08:49;24.00;99.90
15789;DHT22;59075;50.670;6.474;2022-08-01T07:11:16;24.00;99.90
15789;DHT22;59075;50.670;6.474;2022-08-01T07:13:42;24.00;99.90
15789;DHT22;59075;50.670;6.474;2022-08-01T07:16:11;24.00;99.90
15789;DHT22;59075;50.670;6.474;2022-08-01T07:18:39;24.00;99.90
15789;DHT22;59075;50.670;6.474;2022-08-01T07:21:06;24.00;99.90
15789;DHT22;59075;50.670;6.474;2022-08-01T07:28:28;24.10;99.90
15789;DHT22;59075;50.670;6.474;2022-08-01T07:35:51;24.10;99.90
15789;DHT22;59075;50.670;6.474;2022-08-01T07:38:18;24.10;99.90
15789;DHT22;59075;50.670;6.474;2022-08-01T07:40:45;24.10;99.90
15789;DHT22;59075;50.670;6.474;2022-08-01T07:45:40;24.10;99.90
15789;DHT22;59075;50.670;6.474;2022-08-01T07:48:07;24.10;99.90
15789;DHT22;59075;50.670;6.474;2022-08-01T07:50:34;24.10;99.90
15789;DHT22;59075;50.670;6.474;2022-08-01T07:53:02;24.10;99.90
15789;DHT22;59075;50.670;6.474;2022-08-01T07:55:30;24.10;99.90
15789;DHT22;59075;50.670;6.474;2022-08-01T08:00:23;24.10;99.90
15789;DHT22;59075;50.670;6.474;2022-08-01T08:02:50;24.10;99.90
15789;DHT22;59075;50.670;6.474;2022-08-01T08:05:17;24.20;99.90
15789;DHT22;59075;50.670;6.474;2022-08-01T08:10:13;24.20;99.90
15789;DHT22;59075;50.670;6.474;2022-08-01T08:12:39;24.10;99.90
15789;DHT22;59075;50.670;6.474;2022-08-01T08:15:07;24.10;99.90
15789;DHT22;59075;50.670;6.474;2022-08-01T08:17:34;24.10;99.90
15789;DHT22;59075;50.670;6.474;2022-08-01T08:20:01;24.10;99.90
15789;DHT22;59075;50.670;6.474;2022-08-01T08:22:27;24.10;99.90
15789;DHT22;59075;50.670;6.474;2022-08-01T08:24:54;24.20;99.90
15789;DHT22;59075;50.670;6.474;2022-08-01T08:27:22;24.20;99.90
15789;DHT22;59075;50.670;6.474;2022-08-01T08:29:49;24.20;99.90
15789;DHT22;59075;50.670;6.474;2022-08-01T08:32:16;24.30;99.90
15789;DHT22;59075;50.670;6.474;2022-08-01T08:34:42;24.30;99.90
15789;DHT22;59075;50.670;6.474;2022-08-01T08:39:36;24.30;99.90
15789;DHT22;59075;50.670;6.474;2022-08-01T08:42:06;24.30;99.90
15789;DHT22;59075;50.670;6.474;2022-08-01T08:44:35;24.30;99.90
15789;DHT22;59075;50.670;6.474;2022-08-01T08:47:03;24.30;99.90
15789;DHT22;59075;50.670;6.474;2022-08-01T08:52:01;24.30;99.90
15789;DHT22;59075;50.670;6.474;2022-08-01T08:54:29;24.40;99.90
15789;DHT22;59075;50.670;6.474;2022-08-01T08:56:57;24.40;99.90
15789;DHT22;59075;50.670;6.474;2022-08-01T09:01:53;24.40;99.90
15789;DHT22;59075;50.670;6.474;2022-08-01T09:04:21;24.40;99.90
15789;DHT22;59075;50.670;6.474;2022-08-01T09:06:48;24.40;99.90
15789;DHT22;59075;50.670;6.474;2022-08-01T09:09:16;24.50;99.90
15789;DHT22;59075;50.670;6.474;2022-08-01T09:11:43;24.50;99.90
15789;DHT22;59075;50.670;6.474;2022-08-01T09:14:11;24.50;99.90
15789;DHT22;59075;50.670;6.474;2022-08-01T09:16:42;24.40;99.90
15789;DHT22;59075;50.670;6.474;2022-08-01T09:19:12;24.40;99.90
15789;DHT22;59075;50.670;6.474;2022-08-01T09:21:41;24.40;99.90
15789;DHT22;59075;50.670;6.474;2022-08-01T09:26:48;24.40;99.90
15789;DHT22;59075;50.670;6.474;2022-08-01T09:31:47;24.50;99.90
15789;DHT22;59075;50.670;6.474;2022-08-01T09:34:16;24.50;99.90
15789;DHT22;59075;50.670;6.474;2022-08-01T09:36:51;24.50;99.90
15789;DHT22;59075;50.670;6.474;2022-08-01T09:39:19;24.50;99.90
15789;DHT22;59075;50.670;6.474;2022-08-01T09:41:46;24.50;99.90
15789;DHT22;59075;50.670;6.474;2022-08-01T09:44:13;24.50;99.90
15789;DHT22;59075;50.670;6.474;2022-08-01T09:49:32;24.60;99.90
15789;DHT22;59075;50.670;6.474;2022-08-01T09:52:10;24.60;99.90
15789;DHT22;59075;50.670;6.474;2022-08-01T09:54:37;24.50;99.90
15789;DHT22;59075;50.670;6.474;2022-08-01T09:57:09;24.60;99.90
15789;DHT22;59075;50.670;6.474;2022-08-01T09:59:36;24.60;99.90
15789;DHT22;59075;50.670;6.474;2022-08-01T10:04:34;24.60;99.90
15789;DHT22;59075;50.670;6.474;2022-08-01T10:07:05;24.60;99.90
15789;DHT22;59075;50.670;6.474;2022-08-01T10:09:33;24.60;99.90
15789;DHT22;59075;50.670;6.474;2022-08-01T10:12:01;24.50;99.90
15789;DHT22;59075;50.670;6.474;2022-08-01T10:14:28;24.50;99.90
15789;DHT22;59075;50.670;6.474;2022-08-01T10:16:59;24.60;99.90
15789;DHT22;59075;50.670;6.474;2022-08-01T10:19:28;24.50;99.90
15789;DHT22;59075;50.670;6.474;2022-08-01T10:21:57;24.60;99.90
15789;DHT22;59075;50.670;6.474;2022-08-01T10:24:26;24.60;99.90
15789;DHT22;59075;50.670;6.474;2022-08-01T10:26:56;24.50;99.90
15789;DHT22;59075;50.670;6.474;2022-08-01T10:29:25;24.60;99.90
15789;DHT22;59075;50.670;6.474;2022-08-01T10:31:53;24.60;99.90
15789;DHT22;59075;50.670;6.474;2022-08-01T10:34:20;24.60;99.90
15789;DHT22;59075;50.670;6.474;2022-08-01T10:39:16;24.70;99.90
15789;DHT22;59075;50.670;6.474;2022-08-01T10:46:40;24.70;99.90
15789;DHT22;59075;50.670;6.474;2022-08-01T10:49:11;24.70;99.90
15789;DHT22;59075;50.670;6.474;2022-08-01T10:51:39;24.70;99.90
15789;DHT22;59075;50.670;6.474;2022-08-01T10:54:09;24.70;99.90
15789;DHT22;59075;50.670;6.474;2022-08-01T10:56:43;24.70;99.90
15789;DHT22;59075;50.670;6.474;2022-08-01T10:59:14;24.70;99.90
15789;DHT22;59075;50.670;6.474;2022-08-01T11:01:55;24.70;99.90
15789;DHT22;59075;50.670;6.474;2022-08-01T11:07:04;24.50;99.90
15789;DHT22;59075;50.670;6.474;2022-08-01T11:09:39;24.50;99.90
15789;DHT22;59075;50.670;6.474;2022-08-01T11:12:10;24.50;99.90
15789;DHT22;59075;50.670;6.474;2022-08-01T11:17:43;24.50;99.90
15789;DHT22;59075;50.670;6.474;2022-08-01T11:20:14;24.50;99.90
15789;DHT22;59075;50.670;6.474;2022-08-01T11:23:15;24.50;99.90
15789;DHT22;59075;50.670;6.474;2022-08-01T11:26:13;24.50;99.90
15789;DHT22;59075;50.670;6.474;2022-08-01T11:28:44;24.50;99.90
15789;DHT22;59075;50.670;6.474;2022-08-01T11:33:54;24.50;99.90
15789;DHT22;59075;50.670;6.474;2022-08-01T11:39:19;24.60;99.90
15789;DHT22;59075;50.670;6.474;2022-08-01T11:41:47;24.60;99.90
15789;DHT22;59075;50.670;6.474;2022-08-01T11:46:57;24.60;99.90
15789;DHT22;59075;50.670;6.474;2022-08-01T11:49:33;24.60;99.90
15789;DHT22;59075;50.670;6.474;2022-08-01T11:52:04;24.70;99.90
15789;DHT22;59075;50.670;6.474;2022-08-01T11:57:03;24.70;99.90
15789;DHT22;59075;50.670;6.474;2022-08-01T11:59:36;24.70;99.90
15789;DHT22;59075;50.670;6.474;2022-08-01T12:02:03;24.70;99.90
15789;DHT22;59075;50.670;6.474;2022-08-01T12:04:45;24.70;99.90
15789;DHT22;59075;50.670;6.474;2022-08-01T12:07:12;24.70;99.90
15789;DHT22;59075;50.670;6.474;2022-08-01T12:12:08;24.70;99.90
15789;DHT22;59075;50.670;6.474;2022-08-01T12:14:35;24.70;99.90
15789;DHT22;59075;50.670;6.474;2022-08-01T12:17:02;24.70;99.90
15789;DHT22;59075;50.670;6.474;2022-08-01T12:19:29;24.80;99.90
15789;DHT22;59075;50.670;6.474;2022-08-01T12:22:06;24.80;99.90
15789;DHT22;59075;50.670;6.474;2022-08-01T12:27:01;24.80;99.90
15789;DHT22;59075;50.670;6.474;2022-08-01T12:29:36;24.80;99.90
15789;DHT22;59075;50.670;6.474;2022-08-01T12:34:31;24.80;99.90
15789;DHT22;59075;50.670;6.474;2022-08-01T12:37:00;24.80;99.90
15789;DHT22;59075;50.670;6.474;2022-08-01T12:39:34;24.80;99.90
15789;DHT22;59075;50.670;6.474;2022-08-01T12:44:32;24.80;99.90
15789;DHT22;59075;50.670;6.474;2022-08-01T12:47:00;24.80;99.90
15789;DHT22;59075;50.670;6.474;2022-08-01T12:49:27;24.80;99.90
15789;DHT22;59075;50.670;6.474;2022-08-01T12:51:55;24.80;99.90
15789;DHT22;59075;50.670;6.474;2022-08-01T12:54:22;24.70;99.90
15789;DHT22;59075;50.670;6.474;2022-08-01T12:56:50;24.80;99.90
15789;DHT22;59075;50.670;6.474;2022-08-01T12:59:24;24.80;99.90
15789;DHT22;59075;50.670;6.474;2022-08-01T13:01:52;24.80;99.90
15789;DHT22;59075;50.670;6.474;2022-08-01T13:04:19;24.70;99.90
15789;DHT22;59075;50.670;6.474;2022-08-01T13:06:46;24.80;99.90
15789;DHT22;59075;50.670;6.474;2022-08-01T13:09:14;24.70;99.90
15789;DHT22;59075;50.670;6.474;2022-08-01T13:16:47;24.70;99.90
15789;DHT22;59075;50.670;6.474;2022-08-01T13:19:14;24.70;99.90
15789;DHT22;59075;50.670;6.474;2022-08-01T13:21:55;24.70;99.90
15789;DHT22;59075;50.670;6.474;2022-08-01T13:24:24;24.60;99.90
15789;DHT22;59075;50.670;6.474;2022-08-01T13:26:53;24.60;99.90
15789;DHT22;59075;50.670;6.474;2022-08-01T13:29:28;24.60;99.90
15789;DHT22;59075;50.670;6.474;2022-08-01T13:31:57;24.60;99.90
15789;DHT22;59075;50.670;6.474;2022-08-01T13:34:30;24.60;99.90
15789;DHT22;59075;50.670;6.474;2022-08-01T13:36:57;24.60;99.90
15789;DHT22;59075;50.670;6.474;2022-08-01T13:39:23;24.60;99.90
15789;DHT22;59075;50.670;6.474;2022-08-01T13:42:10;24.60;99.90
15789;DHT22;59075;50.670;6.474;2022-08-01T13:44:37;24.60;99.90
15789;DHT22;59075;50.670;6.474;2022-08-01T13:47:06;24.60;99.90
15789;DHT22;59075;50.670;6.474;2022-08-01T13:49:33;24.70;99.90
15789;DHT22;59075;50.670;6.474;2022-08-01T13:52:01;24.70;99.90
15789;DHT22;59075;50.670;6.474;2022-08-01T13:54:28;24.70;99.90
15789;DHT22;59075;50.670;6.474;2022-08-01T13:56:55;24.70;99.90
15789;DHT22;59075;50.670;6.474;2022-08-01T13:59:22;24.70;99.90
15789;DHT22;59075;50.670;6.474;2022-08-01T14:01:48;24.70;99.90
15789;DHT22;59075;50.670;6.474;2022-08-01T14:04:16;24.70;99.90
15789;DHT22;59075;50.670;6.474;2022-08-01T14:06:44;24.70;99.90
15789;DHT22;59075;50.670;6.474;2022-08-01T14:09:10;24.70;99.90
15789;DHT22;59075;50.670;6.474;2022-08-01T14:11:38;24.70;99.90
15789;DHT22;59075;50.670;6.474;2022-08-01T14:16:31;24.60;99.90
15789;DHT22;59075;50.670;6.474;2022-08-01T14:18:58;24.70;99.90
15789;DHT22;59075;50.670;6.474;2022-08-01T14:21:26;24.70;99.90
15789;DHT22;59075;50.670;6.474;2022-08-01T14:23:53;24.70;99.90
15789;DHT22;59075;50.670;6.474;2022-08-01T14:26:19;24.70;99.90
15789;DHT22;59075;50.670;6.474;2022-08-01T14:28:46;24.70;99.90
15789;DHT22;59075;50.670;6.474;2022-08-01T14:31:13;24.70;99.90
15789;DHT22;59075;50.670;6.474;2022-08-01T14:36:07;24.70;99.90
15789;DHT22;59075;50.670;6.474;2022-08-01T14:38:35;24.70;99.90
15789;DHT22;59075;50.670;6.474;2022-08-01T14:45:57;24.70;99.90
15789;DHT22;59075;50.670;6.474;2022-08-01T14:48:23;24.70;99.90
15789;DHT22;59075;50.670;6.474;2022-08-01T14:50:50;24.70;99.90
15789;DHT22;59075;50.670;6.474;2022-08-01T14:53:17;24.70;99.90
15789;DHT22;59075;50.670;6.474;2022-08-01T14:55:45;24.70;99.90
15789;DHT22;59075;50.670;6.474;2022-08-01T14:58:12;24.70;99.90
15789;DHT22;59075;50.670;6.474;2022-08-01T15:03:05;24.70;99.90
15789;DHT22;59075;50.670;6.474;2022-08-01T15:05:32;24.70;99.90
15789;DHT22;59075;50.670;6.474;2022-08-01T15:07:59;24.70;99.90
15789;DHT22;59075;50.670;6.474;2022-08-01T15:10:26;24.70;99.90
15789;DHT22;59075;50.670;6.474;2022-08-01T15:12:54;24.70;99.90
15789;DHT22;59075;50.670;6.474;2022-08-01T15:15:21;24.70;99.90
15789;DHT22;59075;50.670;6.474;2022-08-01T15:17:47;24.70;99.90
15789;DHT22;59075;50.670;6.474;2022-08-01T15:22:41;24.70;99.90
15789;DHT22;59075;50.670;6.474;2022-08-01T15:25:08;24.70;99.90
15789;DHT22;59075;50.670;6.474;2022-08-01T15:30:04;24.70;99.90
15789;DHT22;59075;50.670;6.474;2022-08-01T15:32:31;24.70;99.90
15789;DHT22;59075;50.670;6.474;2022-08-01T15:34:58;24.70;99.90
15789;DHT22;59075;50.670;6.474;2022-08-01T15:37:25;24.70;99.90
15789;DHT22;59075;50.670;6.474;2022-08-01T15:42:19;24.60;99.90
15789;DHT22;59075;50.670;6.474;2022-08-01T15:44:46;24.60;99.90
15789;DHT22;59075;50.670;6.474;2022-08-01T15:47:14;24.60;99.90
15789;DHT22;59075;50.670;6.474;2022-08-01T15:49:40;24.60;99.90
15789;DHT22;59075;50.670;6.474;2022-08-01T15:52:08;24.60;99.90
15789;DHT22;59075;50.670;6.474;2022-08-01T15:54:35;24.60;99.90
15789;DHT22;59075;50.670;6.474;2022-08-01T15:57:02;24.60;99.90
15789;DHT22;59075;50.670;6.474;2022-08-01T15:59:29;24.60;99.90
15789;DHT22;59075;50.670;6.474;2022-08-01T16:01:55;24.60;99.90
15789;DHT22;59075;50.670;6.474;2022-08-01T16:04:23;24.60;99.90
15789;DHT22;59075;50.670;6.474;2022-08-01T16:06:50;24.60;99.90
15789;DHT22;59075;50.670;6.474;2022-08-01T16:09:17;24.60;99.90
15789;DHT22;59075;50.670;6.474;2022-08-01T16:11:44;24.60;99.90
15789;DHT22;59075;50.670;6.474;2022-08-01T16:14:11;24.70;99.90
15789;DHT22;59075;50.670;6.474;2022-08-01T16:16:37;24.70;99.90
15789;DHT22;59075;50.670;6.474;2022-08-01T16:19:04;24.60;99.90
15789;DHT22;59075;50.670;6.474;2022-08-01T16:21:32;24.60;99.90
15789;DHT22;59075;50.670;6.474;2022-08-01T16:23:59;24.60;99.90
15789;DHT22;59075;50.670;6.474;2022-08-01T16:26:25;24.60;99.90
15789;DHT22;59075;50.670;6.474;2022-08-01T16:28:52;24.60;99.90
15789;DHT22;59075;50.670;6.474;2022-08-01T16:31:19;24.60;99.90
15789;DHT22;59075;50.670;6.474;2022-08-01T16:33:46;24.60;99.90
15789;DHT22;59075;50.670;6.474;2022-08-01T16:36:13;24.60;99.90
15789;DHT22;59075;50.670;6.474;2022-08-01T16:38:42;24.60;99.90
15789;DHT22;59075;50.670;6.474;2022-08-01T16:41:11;24.60;99.90
15789;DHT22;59075;50.670;6.474;2022-08-01T16:43:38;24.60;99.90
15789;DHT22;59075;50.670;6.474;2022-08-01T16:46:05;24.60;99.90
15789;DHT22;59075;50.670;6.474;2022-08-01T16:48:32;24.60;99.90
15789;DHT22;59075;50.670;6.474;2022-08-01T16:50:59;24.60;99.90
15789;DHT22;59075;50.670;6.474;2022-08-01T16:53:25;24.60;99.90
15789;DHT22;59075;50.670;6.474;2022-08-01T16:55:54;24.60;99.90
15789;DHT22;59075;50.670;6.474;2022-08-01T17:00:48;24.60;99.90
15789;DHT22;59075;50.670;6.474;2022-08-01T17:05:45;24.60;99.90
15789;DHT22;59075;50.670;6.474;2022-08-01T17:08:11;24.60;99.90
15789;DHT22;59075;50.670;6.474;2022-08-01T17:10:38;24.60;99.90
15789;DHT22;59075;50.670;6.474;2022-08-01T17:15:33;24.60;99.90
15789;DHT22;59075;50.670;6.474;2022-08-01T17:18:01;24.50;99.90
15789;DHT22;59075;50.670;6.474;2022-08-01T17:20:28;24.60;99.90
15789;DHT22;59075;50.670;6.474;2022-08-01T17:22:54;24.60;99.90
15789;DHT22;59075;50.670;6.474;2022-08-01T17:25:22;24.60;99.90
15789;DHT22;59075;50.670;6.474;2022-08-01T17:27:49;24.60;99.90
15789;DHT22;59075;50.670;6.474;2022-08-01T17:30:19;24.60;99.90
15789;DHT22;59075;50.670;6.474;2022-08-01T17:35:13;24.50;99.90
15789;DHT22;59075;50.670;6.474;2022-08-01T17:37:40;24.50;99.90
15789;DHT22;59075;50.670;6.474;2022-08-01T17:40:09;24.50;99.90
15789;DHT22;59075;50.670;6.474;2022-08-01T17:42:36;24.50;99.90
15789;DHT22;59075;50.670;6.474;2022-08-01T17:45:05;24.50;99.90
15789;DHT22;59075;50.670;6.474;2022-08-01T17:47:33;24.50;99.90
15789;DHT22;59075;50.670;6.474;2022-08-01T17:52:29;24.50;99.90
15789;DHT22;59075;50.670;6.474;2022-08-01T17:54:56;24.40;99.90
15789;DHT22;59075;50.670;6.474;2022-08-01T17:57:23;24.40;99.90
15789;DHT22;59075;50.670;6.474;2022-08-01T17:59:50;24.40;99.90
15789;DHT22;59075;50.670;6.474;2022-08-01T18:02:17;24.40;99.90
15789;DHT22;59075;50.670;6.474;2022-08-01T18:04:45;24.40;99.90
15789;DHT22;59075;50.670;6.474;2022-08-01T18:07:12;24.30;99.90
15789;DHT22;59075;50.670;6.474;2022-08-01T18:09:39;24.30;99.90
15789;DHT22;59075;50.670;6.474;2022-08-01T18:14:32;24.30;99.90
15789;DHT22;59075;50.670;6.474;2022-08-01T18:19:26;24.30;99.90
15789;DHT22;59075;50.670;6.474;2022-08-01T18:24:22;24.30;99.90
15789;DHT22;59075;50.670;6.474;2022-08-01T18:26:49;24.40;99.90
15789;DHT22;59075;50.670;6.474;2022-08-01T18:29:18;24.40;99.90
15789;DHT22;59075;50.670;6.474;2022-08-01T18:31:45;24.40;99.90
15789;DHT22;59075;50.670;6.474;2022-08-01T18:34:11;24.40;99.90
15789;DHT22;59075;50.670;6.474;2022-08-01T18:36:38;24.40;99.90
15789;DHT22;59075;50.670;6.474;2022-08-01T18:39:07;24.30;99.90
15789;DHT22;59075;50.670;6.474;2022-08-01T18:41:35;24.40;99.90
15789;DHT22;59075;50.670;6.474;2022-08-01T18:44:03;24.40;99.90
15789;DHT22;59075;50.670;6.474;2022-08-01T18:46:31;24.40;99.90
15789;DHT22;59075;50.670;6.474;2022-08-01T18:48:58;24.40;99.90
15789;DHT22;59075;50.670;6.474;2022-08-01T18:51:25;24.40;99.90
15789;DHT22;59075;50.670;6.474;2022-08-01T18:56:23;24.30;99.90
15789;DHT22;59075;50.670;6.474;2022-08-01T18:58:50;24.30;99.90
15789;DHT22;59075;50.670;6.474;2022-08-01T19:01:18;24.30;99.90
15789;DHT22;59075;50.670;6.474;2022-08-01T19:03:44;24.30;99.90
15789;DHT22;59075;50.670;6.474;2022-08-01T19:06:11;24.30;99.90
15789;DHT22;59075;50.670;6.474;2022-08-01T19:08:38;24.30;99.90
15789;DHT22;59075;50.670;6.474;2022-08-01T19:11:05;24.20;99.90
15789;DHT22;59075;50.670;6.474;2022-08-01T19:13:34;24.20;99.90
15789;DHT22;59075;50.670;6.474;2022-08-01T19:16:00;24.20;99.90
15789;DHT22;59075;50.670;6.474;2022-08-01T19:18:27;24.20;99.90
15789;DHT22;59075;50.670;6.474;2022-08-01T19:20:54;24.20;99.90
15789;DHT22;59075;50.670;6.474;2022-08-01T19:23:21;24.20;99.90
15789;DHT22;59075;50.670;6.474;2022-08-01T19:28:43;24.20;99.90
15789;DHT22;59075;50.670;6.474;2022-08-01T19:33:39;24.20;99.90
15789;DHT22;59075;50.670;6.474;2022-08-01T19:38:34;24.20;99.90
15789;DHT22;59075;50.670;6.474;2022-08-01T19:41:02;24.20;99.90
15789;DHT22;59075;50.670;6.474;2022-08-01T19:48:25;24.20;99.90
15789;DHT22;59075;50.670;6.474;2022-08-01T19:50:53;24.10;99.90
15789;DHT22;59075;50.670;6.474;2022-08-01T19:53:23;24.10;99.90
15789;DHT22;59075;50.670;6.474;2022-08-01T19:58:21;24.10;99.90
15789;DHT22;59075;50.670;6.474;2022-08-01T20:00:49;24.10;99.90
15789;DHT22;59075;50.670;6.474;2022-08-01T20:03:18;24.10;99.90
15789;DHT22;59075;50.670;6.474;2022-08-01T20:05:44;24.10;99.90
15789;DHT22;59075;50.670;6.474;2022-08-01T20:08:11;24.10;99.90
15789;DHT22;59075;50.670;6.474;2022-08-01T20:10:39;24.10;99.90
15789;DHT22;59075;50.670;6.474;2022-08-01T20:13:07;24.10;99.90
15789;DHT22;59075;50.670;6.474;2022-08-01T20:15:36;24.10;99.90
15789;DHT22;59075;50.670;6.474;2022-08-01T20:18:03;24.00;99.90
15789;DHT22;59075;50.670;6.474;2022-08-01T20:20:32;24.00;99.90
15789;DHT22;59075;50.670;6.474;2022-08-01T20:23:00;24.00;99.90
15789;DHT22;59075;50.670;6.474;2022-08-01T20:25:29;24.00;99.90
15789;DHT22;59075;50.670;6.474;2022-08-01T20:27:57;24.00;99.90
15789;DHT22;59075;50.670;6.474;2022-08-01T20:30:24;24.00;99.90
15789;DHT22;59075;50.670;6.474;2022-08-01T20:32:53;24.00;99.90
15789;DHT22;59075;50.670;6.474;2022-08-01T20:35:20;24.00;99.90
15789;DHT22;59075;50.670;6.474;2022-08-01T20:37:50;24.00;99.90
15789;DHT22;59075;50.670;6.474;2022-08-01T20:40:18;24.00;99.90
15789;DHT22;59075;50.670;6.474;2022-08-01T20:42:47;24.00;99.90
15789;DHT22;59075;50.670;6.474;2022-08-01T20:45:15;24.00;99.90
15789;DHT22;59075;50.670;6.474;2022-08-01T20:47:43;23.90;99.90
15789;DHT22;59075;50.670;6.474;2022-08-01T20:50:11;24.00;99.90
15789;DHT22;59075;50.670;6.474;2022-08-01T20:52:56;24.00;99.90
15789;DHT22;59075;50.670;6.474;2022-08-01T20:55:25;23.90;99.90
15789;DHT22;59075;50.670;6.474;2022-08-01T20:58:00;23.90;99.90
